6OI5 weather

Mitchell Airport
Plain City, Ohio, United States

Public forecast

Using degrees Fahrenheit for public forecast. Weather courtesy of forecast.io.

METAR (pilot weather report)

Closest report is The Ohio State University Airport - Don Scott Field, 7.5 nm (13.9 km) ESE. Retrieved 2019/05/22 17:53 UTC (54 minutes ago):

KOSU 221753Z 19005KT 10SM FEW050 FEW060 SCT080 27/17 A3002 RMK AO2 SLP163 T02670172 10267 20139 50001

TAF (pilot weather forecast)

Closest forecast is John Glenn Columbus International Airport, 17.2 nm (31.8 km) ESE. Retrieved 2019/05/22 18:33 UTC (14 minutes ago):

TAF KCMH 221730Z 2218/2318 19012G20KT P6SM SCT050 BKN200 FM222300 22009KT P6SM VCTS BKN045CB FM230300 18006KT P6SM VCSH BKN045 FM230800 19007KT P6SM SCT045 FM231100 20008KT P6SM VCSH BKN050 FM231500 23013G24KT P6SM BKN040